Time;durP1;ratioP1;P1;durP2;ratioP2;P2;SDS_P1;SDS_P2;PMS_P1;PMS_P2;Temp;Humidity;BMP_temperature;BMP_pressure;BME280_temperature;BME280_humidity;BME280_pressure;Samples;Min_cycle;Max_cycle;Signal;HPM_P1;HPM_P2
2021/11/06 00:00:55;;;;;;;3.35;1.42;;;7.90;92.40;;;;;;2076265;28;20049;-91
2021/11/06 00:01:55;;;;;;;3.53;1.70;;;7.90;92.40;;;;;;2082307;28;20480;-91
2021/11/06 00:02:56;;;;;;;4.35;1.70;;;7.90;92.30;;;;;;2081966;28;20100;-91
2021/11/06 00:03:57;;;;;;;3.63;1.70;;;7.80;92.30;;;;;;2076410;28;20179;-91
2021/11/06 00:04:57;;;;;;;3.55;1.70;;;7.80;92.30;;;;;;2078225;28;20034;-86
2021/11/06 00:05:58;;;;;;;5.07;1.65;;;7.80;92.60;;;;;;2083703;28;20054;-85
2021/11/06 00:06:59;;;;;;;3.17;1.50;;;7.80;92.30;;;;;;2075052;28;20112;-90
2021/11/06 00:07:59;;;;;;;3.47;1.70;;;7.80;92.30;;;;;;2063802;28;20039;-90
2021/11/06 00:09:02;;;;;;;2.80;1.80;;;7.80;92.30;;;;;;2056557;28;20122;-90
2021/11/06 00:10:06;;;;;;;3.42;2.00;;;7.80;92.30;;;;;;2064874;28;20532;-90
2021/11/06 00:11:06;;;;;;;2.95;1.60;;;7.80;92.30;;;;;;2081405;28;20533;-90
2021/11/06 00:12:07;;;;;;;3.53;1.75;;;7.80;92.30;;;;;;2063465;28;20033;-91
2021/11/06 00:13:08;;;;;;;2.53;1.48;;;7.80;92.40;;;;;;2064850;28;20038;-90
2021/11/06 00:14:09;;;;;;;3.85;1.80;;;7.80;92.40;;;;;;2063600;28;20062;-91
2021/11/06 00:15:11;;;;;;;2.78;1.40;;;7.80;92.40;;;;;;2078006;28;20052;-91
2021/11/06 00:16:12;;;;;;;3.50;2.00;;;7.70;92.40;;;;;;2090657;28;20044;-91
2021/11/06 00:17:12;;;;;;;5.40;1.65;;;7.80;92.40;;;;;;2087596;28;20079;-91
2021/11/06 00:18:13;;;;;;;3.25;1.73;;;7.80;92.40;;;;;;2073298;28;20030;-91
2021/11/06 00:19:14;;;;;;;4.32;1.90;;;7.80;92.40;;;;;;2067199;28;20046;-90
2021/11/06 00:20:15;;;;;;;4.78;2.10;;;7.70;92.40;;;;;;2054440;28;20117;-91
2021/11/06 00:21:16;;;;;;;4.18;1.88;;;7.70;92.40;;;;;;2059008;28;20062;-90
2021/11/06 00:22:17;;;;;;;4.30;1.65;;;7.70;92.40;;;;;;2051701;28;20035;-90
2021/11/06 00:23:18;;;;;;;4.32;1.80;;;7.70;92.40;;;;;;2066688;28;20062;-90
2021/11/06 00:24:19;;;;;;;4.63;1.70;;;7.70;92.40;;;;;;2074625;28;20049;-91
2021/11/06 00:25:20;;;;;;;3.85;1.90;;;7.70;92.40;;;;;;2075392;28;20527;-90
2021/11/06 00:26:21;;;;;;;3.83;1.98;;;7.70;92.70;;;;;;2068941;28;20601;-90
2021/11/06 00:27:22;;;;;;;3.58;1.83;;;7.70;92.40;;;;;;2078529;28;20041;-89
2021/11/06 00:28:22;;;;;;;3.97;2.00;;;7.70;92.40;;;;;;2083129;28;20032;-90
2021/11/06 00:29:23;;;;;;;4.15;1.80;;;7.70;92.40;;;;;;2075335;28;20138;-90
2021/11/06 00:30:24;;;;;;;4.32;1.85;;;7.70;92.40;;;;;;2067324;28;20096;-89
2021/11/06 00:31:24;;;;;;;3.50;1.80;;;7.60;92.40;;;;;;2076867;28;20030;-82
2021/11/06 00:32:25;;;;;;;3.70;2.20;;;7.60;92.40;;;;;;2069905;28;20010;-90
2021/11/06 00:33:27;;;;;;;3.55;1.75;;;7.60;92.50;;;;;;2076844;28;20124;-89
2021/11/06 00:34:28;;;;;;;4.28;2.30;;;7.60;92.50;;;;;;2079066;28;20026;-83
2021/11/06 00:35:28;;;;;;;4.97;2.20;;;7.60;92.50;;;;;;2085160;28;20010;-82
2021/11/06 00:36:29;;;;;;;3.75;2.22;;;7.60;92.50;;;;;;2069026;28;20061;-86
2021/11/06 00:37:30;;;;;;;3.80;2.10;;;7.60;92.50;;;;;;2081823;28;20038;-86
2021/11/06 00:38:31;;;;;;;3.60;1.98;;;7.60;92.50;;;;;;2078238;28;20252;-90
2021/11/06 00:39:33;;;;;;;4.15;2.00;;;7.50;92.50;;;;;;2066950;28;20031;-90
2021/11/06 00:40:33;;;;;;;3.60;1.92;;;7.50;92.50;;;;;;2074712;28;20513;-90
2021/11/06 00:41:34;;;;;;;4.20;2.13;;;7.50;92.50;;;;;;2074693;28;20038;-91
2021/11/06 00:42:35;;;;;;;4.50;2.17;;;7.50;92.50;;;;;;2077147;28;20056;-90
2021/11/06 00:43:36;;;;;;;3.55;2.00;;;7.50;92.50;;;;;;2080306;28;20048;-90
2021/11/06 00:44:36;;;;;;;3.58;2.15;;;7.50;92.50;;;;;;2074600;28;20141;-90
2021/11/06 00:45:37;;;;;;;3.80;2.13;;;7.50;92.50;;;;;;2082901;28;20051;-90
2021/11/06 00:46:38;;;;;;;4.38;1.90;;;7.50;92.50;;;;;;2084952;28;20026;-90
2021/11/06 00:47:40;;;;;;;4.53;2.10;;;7.50;92.50;;;;;;2080009;28;20061;-91
2021/11/06 00:48:40;;;;;;;3.38;2.10;;;7.50;92.50;;;;;;2074960;28;20558;-91
2021/11/06 00:49:41;;;;;;;4.25;2.10;;;7.50;92.50;;;;;;2074809;28;20053;-91
2021/11/06 00:50:42;;;;;;;4.07;2.20;;;7.50;92.50;;;;;;2075018;28;20468;-90
2021/11/06 00:51:44;;;;;;;4.18;2.20;;;7.50;92.50;;;;;;2074638;28;20045;-90
2021/11/06 00:52:48;;;;;;;3.40;2.13;;;7.50;92.50;;;;;;2069506;28;20046;-91
2021/11/06 00:53:48;;;;;;;4.90;2.17;;;7.50;92.50;;;;;;2072997;28;20034;-90
2021/11/06 00:54:49;;;;;;;3.50;1.92;;;7.50;92.50;;;;;;2074090;28;20538;-90
2021/11/06 00:55:50;;;;;;;3.50;2.20;;;7.50;92.50;;;;;;2066275;28;20038;-90
2021/11/06 00:56:51;;;;;;;3.78;2.05;;;7.50;92.50;;;;;;2074689;28;20439;-90
2021/11/06 00:57:51;;;;;;;5.93;2.17;;;7.50;92.50;;;;;;2079876;28;20086;-90
2021/11/06 00:58:52;;;;;;;6.40;2.60;;;7.50;92.50;;;;;;2070367;28;20074;-91
2021/11/06 00:59:53;;;;;;;4.03;2.33;;;7.50;92.50;;;;;;2060488;28;20054;-91
2021/11/06 01:00:53;;;;;;;3.60;2.28;;;7.40;92.50;;;;;;2058413;28;20103;-91
2021/11/06 01:01:54;;;;;;;4.38;2.70;;;7.40;92.50;;;;;;2058202;28;20034;-90
2021/11/06 01:02:55;;;;;;;4.35;2.35;;;7.40;92.50;;;;;;2052047;28;20522;-90
2021/11/06 01:03:56;;;;;;;4.43;2.20;;;7.40;92.50;;;;;;2066144;28;20096;-90
2021/11/06 01:04:57;;;;;;;5.10;2.42;;;7.40;92.50;;;;;;2074328;28;20030;-91
2021/11/06 01:05:57;;;;;;;4.10;2.50;;;7.40;92.50;;;;;;2062157;28;20031;-90
2021/11/06 01:06:58;;;;;;;4.88;2.75;;;7.40;92.50;;;;;;2066012;28;20043;-90
2021/11/06 01:07:59;;;;;;;3.72;2.30;;;7.40;92.50;;;;;;2082360;28;20041;-90
2021/11/06 01:09:00;;;;;;;5.43;2.30;;;7.40;92.50;;;;;;2074523;28;20049;-89
2021/11/06 01:10:00;;;;;;;4.82;2.53;;;7.40;92.50;;;;;;2074100;28;20034;-91
2021/11/06 01:11:01;;;;;;;4.20;2.47;;;7.40;92.50;;;;;;2068202;28;20137;-91
2021/11/06 01:12:02;;;;;;;5.03;2.70;;;7.40;92.70;;;;;;2065679;28;20045;-90
2021/11/06 01:13:03;;;;;;;4.60;2.60;;;7.40;92.50;;;;;;2074345;28;20029;-91
2021/11/06 01:14:04;;;;;;;4.47;2.55;;;7.40;92.50;;;;;;2067788;28;20042;-91
2021/11/06 01:15:07;;;;;;;3.88;2.40;;;7.40;92.50;;;;;;2068484;28;20052;-91
2021/11/06 01:16:10;;;;;;;4.03;2.55;;;7.40;92.50;;;;;;2082638;28;20045;-91
2021/11/06 01:17:11;;;;;;;4.72;2.30;;;7.40;92.50;;;;;;2081277;28;20025;-90
2021/11/06 01:18:14;;;;;;;4.75;2.58;;;7.40;92.50;;;;;;2075161;28;20053;-90
2021/11/06 01:19:15;;;;;;;5.13;2.60;;;7.40;92.50;;;;;;2082104;28;20128;-90
2021/11/06 01:20:16;;;;;;;4.70;2.70;;;7.50;92.40;;;;;;2058103;28;20410;-91
2021/11/06 01:21:19;;;;;;;5.40;2.70;;;7.50;92.40;;;;;;2053732;28;20050;-90
2021/11/06 01:22:20;;;;;;;4.70;2.63;;;7.50;92.40;;;;;;2067815;28;20141;-90
2021/11/06 01:23:20;;;;;;;4.55;2.80;;;7.50;92.40;;;;;;2081578;28;20030;-90
2021/11/06 01:24:22;;;;;;;5.53;2.80;;;7.50;92.40;;;;;;2077415;28;20520;-90
2021/11/06 01:25:23;;;;;;;5.15;2.90;;;7.50;92.40;;;;;;2080805;28;20048;-89
2021/11/06 01:26:24;;;;;;;5.70;3.00;;;7.50;92.40;;;;;;2074263;28;20496;-90
2021/11/06 01:27:25;;;;;;;4.70;2.88;;;7.50;92.40;;;;;;2063965;28;20117;-90
2021/11/06 01:28:25;;;;;;;5.03;2.92;;;7.50;92.40;;;;;;2060422;28;20500;-90
2021/11/06 01:29:26;;;;;;;4.90;2.90;;;7.50;92.40;;;;;;2081115;28;20038;-91
2021/11/06 01:30:27;;;;;;;4.38;2.80;;;7.50;92.40;;;;;;2081736;28;20072;-91
2021/11/06 01:31:28;;;;;;;4.88;2.97;;;7.50;92.40;;;;;;2082648;28;20052;-91
2021/11/06 01:32:29;;;;;;;6.50;3.20;;;7.50;92.40;;;;;;2076129;28;20068;-91
2021/11/06 01:33:29;;;;;;;5.43;3.13;;;7.40;92.40;;;;;;2076076;28;20037;-90
2021/11/06 01:34:30;;;;;;;5.35;3.20;;;7.50;92.40;;;;;;2066569;28;20045;-91
2021/11/06 01:35:31;;;;;;;4.78;3.33;;;7.50;92.40;;;;;;2075475;28;20073;-89
2021/11/06 01:36:31;;;;;;;5.28;3.10;;;7.50;92.40;;;;;;2079780;28;20046;-91
2021/11/06 01:37:32;;;;;;;6.03;3.30;;;7.50;92.40;;;;;;2071053;28;20070;-90
2021/11/06 01:38:33;;;;;;;5.15;3.22;;;7.50;92.40;;;;;;2057928;28;20030;-90
2021/11/06 01:39:33;;;;;;;5.85;3.53;;;7.50;92.40;;;;;;2066188;28;20101;-91
2021/11/06 01:40:34;;;;;;;4.90;3.35;;;7.50;92.40;;;;;;2058118;28;20589;-90
2021/11/06 01:41:35;;;;;;;4.78;3.28;;;7.50;92.40;;;;;;2074313;28;20072;-90
2021/11/06 01:42:38;;;;;;;6.55;3.53;;;7.50;92.40;;;;;;2075297;28;20042;-91
2021/11/06 01:43:40;;;;;;;5.43;3.42;;;7.50;92.40;;;;;;2074101;28;20036;-90
2021/11/06 01:44:40;;;;;;;7.40;3.72;;;7.50;92.40;;;;;;2058511;28;20035;-90
2021/11/06 01:45:42;;;;;;;5.82;3.50;;;7.50;92.30;;;;;;2065765;28;20040;-90
2021/11/06 01:46:43;;;;;;;7.90;4.38;;;7.50;92.30;;;;;;2066238;28;20031;-91
2021/11/06 01:47:44;;;;;;;6.93;4.00;;;7.50;92.30;;;;;;2065762;28;20069;-90
2021/11/06 01:48:45;;;;;;;6.03;3.80;;;7.50;92.30;;;;;;2076067;28;20014;-91
2021/11/06 01:49:45;;;;;;;5.60;3.67;;;7.50;92.30;;;;;;2064152;28;20034;-91
2021/11/06 01:50:46;;;;;;;5.93;3.70;;;7.50;92.30;;;;;;2058068;28;20058;-90
2021/11/06 01:51:49;;;;;;;5.63;3.47;;;7.50;92.30;;;;;;2071820;28;20052;-91
2021/11/06 01:52:51;;;;;;;5.47;3.90;;;7.50;92.30;;;;;;2049537;28;20133;-91
2021/11/06 01:53:52;;;;;;;6.20;4.10;;;7.50;92.30;;;;;;2067678;28;20034;-91
2021/11/06 01:54:53;;;;;;;5.68;3.92;;;7.50;92.30;;;;;;2078161;28;20680;-90
2021/11/06 01:55:55;;;;;;;5.88;4.03;;;7.50;92.30;;;;;;2082129;28;20041;-91
2021/11/06 01:56:56;;;;;;;5.55;3.47;;;7.50;92.60;;;;;;2079562;28;20116;-90
2021/11/06 01:57:58;;;;;;;6.47;3.90;;;7.50;92.30;;;;;;2065566;28;20400;-91
2021/11/06 01:59:00;;;;;;;7.45;3.83;;;7.50;92.30;;;;;;2074035;28;20029;-91
2021/11/06 02:00:04;;;;;;;5.75;3.83;;;7.50;92.30;;;;;;2073814;28;20594;-89
2021/11/06 02:01:05;;;;;;;6.85;3.75;;;7.50;92.30;;;;;;2077869;28;20187;-90
2021/11/06 02:02:05;;;;;;;5.60;3.88;;;7.50;92.20;;;;;;2069963;28;20038;-91
2021/11/06 02:03:07;;;;;;;5.43;3.72;;;7.50;92.20;;;;;;2081392;28;20037;-90
2021/11/06 02:04:09;;;;;;;5.65;3.63;;;7.50;92.20;;;;;;2082498;28;20034;-90
2021/11/06 02:05:11;;;;;;;6.47;3.83;;;7.60;92.20;;;;;;2087265;28;20113;-83
2021/11/06 02:06:12;;;;;;;6.85;3.75;;;7.50;92.20;;;;;;2089590;28;20024;-90
2021/11/06 02:07:13;;;;;;;6.28;3.80;;;7.50;92.20;;;;;;2089234;28;20044;-91
2021/11/06 02:08:15;;;;;;;7.20;4.10;;;7.60;92.20;;;;;;2087417;28;20106;-85
2021/11/06 02:09:15;;;;;;;8.45;3.90;;;7.60;92.20;;;;;;2080989;28;20022;-84
2021/11/06 02:10:16;;;;;;;6.57;4.13;;;7.60;92.20;;;;;;2078469;28;20021;-86
2021/11/06 02:11:17;;;;;;;6.30;4.07;;;7.60;92.20;;;;;;2088521;28;20013;-90
2021/11/06 02:12:17;;;;;;;6.20;3.47;;;7.60;92.20;;;;;;2092659;28;20038;-81
2021/11/06 02:13:19;;;;;;;5.82;3.58;;;7.60;92.20;;;;;;2084333;28;20026;-90
2021/11/06 02:14:20;;;;;;;5.80;3.60;;;7.60;92.20;;;;;;2084067;28;20044;-90
2021/11/06 02:15:21;;;;;;;5.63;3.60;;;7.60;92.20;;;;;;2079135;28;20064;-89
2021/11/06 02:16:22;;;;;;;6.47;4.00;;;7.60;92.10;;;;;;2069259;28;20039;-91
2021/11/06 02:17:22;;;;;;;6.20;3.92;;;7.60;92.10;;;;;;2058588;28;20529;-91
2021/11/06 02:18:23;;;;;;;6.43;3.72;;;7.60;92.10;;;;;;2059459;28;20264;-90
2021/11/06 02:19:30;;;;;;;6.78;3.92;;;7.60;92.40;;;;;;2076254;28;20041;-90
2021/11/06 02:20:32;;;;;;;6.97;4.13;;;7.60;92.10;;;;;;2071468;28;20030;-90
2021/11/06 02:21:34;;;;;;;6.78;4.00;;;7.60;92.10;;;;;;2076301;28;20049;-89
2021/11/06 02:22:35;;;;;;;6.22;3.85;;;7.60;92.10;;;;;;2074383;28;20091;-91
2021/11/06 02:23:39;;;;;;;6.75;3.80;;;7.60;92.10;;;;;;2073823;28;20057;-91
2021/11/06 02:24:40;;;;;;;6.95;4.22;;;7.60;92.10;;;;;;2066218;28;20034;-91
2021/11/06 02:25:41;;;;;;;6.90;4.30;;;7.60;92.10;;;;;;2064986;28;20038;-91
2021/11/06 02:26:42;;;;;;;7.30;4.25;;;7.70;92.10;;;;;;2059671;28;20081;-91
2021/11/06 02:27:42;;;;;;;6.70;3.95;;;7.60;92.10;;;;;;2074767;28;20038;-92
2021/11/06 02:28:58;;;;;;;6.68;3.88;;;7.60;92.20;;;;;;2072209;28;20053;-90
2021/11/06 02:29:59;;;;;;;6.50;3.58;;;7.70;92.10;;;;;;2078923;28;20040;-91
2021/11/06 02:31:00;;;;;;;5.72;3.80;;;7.70;92.10;;;;;;2080087;28;20034;-90
2021/11/06 02:32:01;;;;;;;6.53;3.80;;;7.70;92.10;;;;;;2076230;28;20038;-89
2021/11/06 02:33:03;;;;;;;7.32;3.78;;;7.70;92.10;;;;;;2063949;28;20521;-90
2021/11/06 02:34:04;;;;;;;6.47;3.88;;;7.60;92.10;;;;;;2076432;28;20042;-89
2021/11/06 02:35:07;;;;;;;6.65;4.00;;;7.70;92.10;;;;;;2083053;28;20026;-90
2021/11/06 02:36:07;;;;;;;7.80;3.80;;;7.60;92.10;;;;;;2078358;28;20041;-90
2021/11/06 02:37:08;;;;;;;6.40;3.97;;;7.70;92.10;;;;;;2074157;28;20527;-91
2021/11/06 02:38:11;;;;;;;7.45;3.75;;;7.70;92.10;;;;;;2065726;28;20078;-91
2021/11/06 02:39:12;;;;;;;7.28;4.28;;;7.70;92.10;;;;;;2080281;28;20116;-90
2021/11/06 02:40:13;;;;;;;7.63;4.30;;;7.70;92.10;;;;;;2076634;28;20040;-91
2021/11/06 02:41:14;;;;;;;6.50;4.18;;;7.70;92.10;;;;;;2075777;28;20056;-91
2021/11/06 02:42:15;;;;;;;8.65;4.18;;;7.70;92.10;;;;;;2076113;28;20384;-91
2021/11/06 02:43:15;;;;;;;6.78;3.90;;;7.70;92.10;;;;;;2088563;28;20518;-92
2021/11/06 02:44:16;;;;;;;7.18;4.03;;;7.60;92.10;;;;;;2073838;28;20060;-91
2021/11/06 02:45:17;;;;;;;7.30;4.10;;;7.60;92.10;;;;;;2077866;28;20044;-91
2021/11/06 02:46:17;;;;;;;6.45;3.85;;;7.70;92.10;;;;;;2082758;28;20060;-90
2021/11/06 02:47:18;;;;;;;8.75;4.13;;;7.70;92.10;;;;;;2076796;28;20037;-91
2021/11/06 02:48:20;;;;;;;6.88;3.97;;;7.70;92.10;;;;;;2070795;28;20029;-90
2021/11/06 02:49:21;;;;;;;8.32;4.28;;;7.70;92.10;;;;;;2073422;28;20076;-91
2021/11/06 02:50:21;;;;;;;8.18;4.55;;;7.70;92.20;;;;;;2079091;28;20091;-91
2021/11/06 02:51:22;;;;;;;7.68;4.15;;;7.70;92.10;;;;;;2081841;28;20045;-90
2021/11/06 02:52:23;;;;;;;8.55;4.45;;;7.70;92.10;;;;;;2064472;28;20070;-91
2021/11/06 02:53:23;;;;;;;8.93;4.07;;;7.60;92.10;;;;;;2062190;28;20034;-91
2021/11/06 02:54:24;;;;;;;10.77;5.10;;;7.70;92.10;;;;;;2079048;28;20037;-91
2021/11/06 02:55:25;;;;;;;7.90;4.60;;;7.70;92.10;;;;;;2073602;28;20065;-90
2021/11/06 02:56:27;;;;;;;11.25;4.75;;;7.70;92.10;;;;;;2065388;28;20059;-90
2021/11/06 02:57:28;;;;;;;8.95;5.20;;;7.70;92.10;;;;;;2073107;28;20092;-90
2021/11/06 02:58:29;;;;;;;8.93;4.40;;;7.70;92.10;;;;;;2073891;28;20049;-91
2021/11/06 02:59:30;;;;;;;8.55;4.70;;;7.70;92.10;;;;;;2069361;28;20485;-90
2021/11/06 03:00:32;;;;;;;9.65;4.63;;;7.70;92.40;;;;;;2065792;28;20124;-90
2021/11/06 03:01:33;;;;;;;10.10;4.70;;;7.70;92.10;;;;;;2079715;28;20112;-90
2021/11/06 03:02:34;;;;;;;9.90;4.80;;;7.60;92.10;;;;;;2073378;28;20038;-90
2021/11/06 03:03:35;;;;;;;10.45;5.03;;;7.70;92.10;;;;;;2074110;28;20579;-90
2021/11/06 03:04:37;;;;;;;9.43;4.80;;;7.70;92.10;;;;;;2081049;28;20484;-90
2021/11/06 03:05:37;;;;;;;11.85;5.38;;;7.70;92.10;;;;;;2074934;28;20030;-91
2021/11/06 03:06:39;;;;;;;11.48;5.15;;;7.70;92.10;;;;;;2075849;28;20030;-91
2021/11/06 03:07:41;;;;;;;9.43;4.68;;;7.70;92.10;;;;;;2075611;28;20496;-91
2021/11/06 03:08:41;;;;;;;11.43;5.50;;;7.70;92.10;;;;;;2081870;28;20083;-90
2021/11/06 03:09:42;;;;;;;9.65;4.90;;;7.70;92.10;;;;;;2073800;28;20045;-91
2021/11/06 03:10:43;;;;;;;10.98;5.10;;;7.70;92.10;;;;;;2072340;28;20037;-91
2021/11/06 03:11:44;;;;;;;10.48;5.38;;;7.70;92.10;;;;;;2068630;28;20463;-91
2021/11/06 03:12:46;;;;;;;10.45;5.15;;;7.70;92.00;;;;;;2073045;28;20068;-90
2021/11/06 03:13:47;;;;;;;11.63;5.38;;;7.70;92.00;;;;;;2066654;28;20033;-90
2021/11/06 03:14:47;;;;;;;11.32;5.43;;;7.70;92.00;;;;;;2077620;28;20072;-91
2021/11/06 03:15:48;;;;;;;10.15;4.93;;;7.70;92.00;;;;;;2080402;28;20095;-90
2021/11/06 03:16:49;;;;;;;10.45;4.90;;;7.70;92.00;;;;;;2073892;28;20042;-91
2021/11/06 03:17:49;;;;;;;12.15;5.40;;;7.70;92.00;;;;;;2074437;28;20041;-90
2021/11/06 03:18:50;;;;;;;11.85;5.60;;;7.70;92.00;;;;;;2073785;28;20098;-91
2021/11/06 03:19:51;;;;;;;12.35;5.18;;;7.70;92.00;;;;;;2078565;28;20046;-90
2021/11/06 03:20:52;;;;;;;11.93;5.53;;;7.70;92.00;;;;;;2077147;28;20160;-91
2021/11/06 03:21:52;;;;;;;11.95;5.70;;;7.70;92.00;;;;;;2073656;28;20042;-91
2021/11/06 03:22:58;;;;;;;14.65;5.90;;;7.70;92.00;;;;;;2073684;28;20049;-90
2021/11/06 03:23:58;;;;;;;15.05;5.80;;;7.70;92.00;;;;;;2073885;28;20104;-91
2021/11/06 03:25:00;;;;;;;13.85;5.68;;;7.70;92.00;;;;;;2075813;28;20488;-90
2021/11/06 03:26:00;;;;;;;13.88;6.32;;;7.80;92.00;;;;;;2074074;28;20073;-91
2021/11/06 03:27:01;;;;;;;12.50;5.63;;;7.70;92.00;;;;;;2065630;28;20061;-90
2021/11/06 03:28:02;;;;;;;15.60;6.05;;;7.80;92.00;;;;;;2065627;28;20038;-90
2021/11/06 03:29:03;;;;;;;14.52;6.32;;;7.80;92.00;;;;;;2073557;28;20092;-90
2021/11/06 03:30:09;;;;;;;13.20;6.28;;;7.70;92.00;;;;;;2073688;28;20046;-90
2021/11/06 03:31:09;;;;;;;15.52;6.85;;;7.70;91.90;;;;;;2076257;28;20046;-90
2021/11/06 03:32:10;;;;;;;13.32;6.07;;;7.70;91.90;;;;;;2081426;28;20133;-90
2021/11/06 03:33:11;;;;;;;13.27;6.53;;;7.70;91.90;;;;;;2080780;28;20077;-90
2021/11/06 03:34:11;;;;;;;13.02;5.88;;;7.70;92.00;;;;;;2073625;28;20030;-90
2021/11/06 03:35:13;;;;;;;14.25;7.00;;;7.70;92.00;;;;;;2065253;28;20141;-90
2021/11/06 03:36:14;;;;;;;13.68;5.70;;;7.70;92.00;;;;;;2079624;28;20029;-90
2021/11/06 03:37:14;;;;;;;12.18;5.95;;;7.70;92.00;;;;;;2079407;28;20069;-90
2021/11/06 03:38:15;;;;;;;13.95;6.50;;;7.70;92.00;;;;;;2062463;28;20596;-91
2021/11/06 03:39:16;;;;;;;12.05;5.95;;;7.70;92.00;;;;;;2049618;28;20071;-91
2021/11/06 03:40:18;;;;;;;13.15;6.40;;;7.80;92.00;;;;;;2056948;28;20037;-90
2021/11/06 03:41:19;;;;;;;12.70;5.45;;;7.70;92.00;;;;;;2075537;28;20088;-90
2021/11/06 03:42:20;;;;;;;13.32;6.53;;;7.80;92.00;;;;;;2081031;28;20038;-90
2021/11/06 03:43:21;;;;;;;14.68;6.53;;;7.80;91.90;;;;;;2072898;28;20019;-90
2021/11/06 03:44:21;;;;;;;13.18;6.30;;;7.80;91.90;;;;;;2078973;28;20041;-90
2021/11/06 03:45:22;;;;;;;12.85;6.00;;;7.80;91.90;;;;;;2082862;28;20050;-90
2021/11/06 03:46:23;;;;;;;13.98;5.97;;;7.80;91.90;;;;;;2083411;28;20029;-89
2021/11/06 03:47:24;;;;;;;12.40;5.65;;;7.80;91.90;;;;;;2092518;28;20080;-85
2021/11/06 03:48:25;;;;;;;11.23;5.80;;;7.80;91.90;;;;;;2086272;28;20034;-81
2021/11/06 03:49:25;;;;;;;12.10;5.82;;;7.80;91.90;;;;;;2075535;28;20077;-84
2021/11/06 03:50:26;;;;;;;12.27;6.07;;;7.80;91.90;;;;;;2070068;28;20035;-90
2021/11/06 03:51:27;;;;;;;13.18;6.20;;;7.80;91.90;;;;;;2085683;28;20036;-84
2021/11/06 03:52:28;;;;;;;12.50;6.22;;;7.80;91.90;;;;;;2082488;28;20049;-90
2021/11/06 03:53:28;;;;;;;12.40;6.05;;;7.80;91.90;;;;;;2074358;28;20038;-90
2021/11/06 03:54:29;;;;;;;13.90;6.30;;;7.80;91.90;;;;;;2076694;28;20084;-91
2021/11/06 03:55:30;;;;;;;11.65;5.65;;;7.80;91.90;;;;;;2074860;28;20052;-91
2021/11/06 03:56:31;;;;;;;13.55;5.45;;;7.70;91.90;;;;;;2075300;28;20042;-91
2021/11/06 03:57:32;;;;;;;13.48;5.90;;;7.80;91.90;;;;;;2066876;28;20076;-90
2021/11/06 03:58:32;;;;;;;10.93;5.68;;;7.80;91.90;;;;;;2050811;28;20125;-91
2021/11/06 03:59:33;;;;;;;12.13;5.70;;;7.80;91.90;;;;;;2066928;28;20053;-90
2021/11/06 04:00:34;;;;;;;11.05;5.78;;;7.80;91.90;;;;;;2068875;28;20026;-91
2021/11/06 04:01:34;;;;;;;13.05;5.88;;;7.80;91.90;;;;;;2074742;28;20100;-91
2021/11/06 04:02:35;;;;;;;13.27;6.05;;;7.80;91.90;;;;;;2066229;28;20030;-88
2021/11/06 04:03:36;;;;;;;11.93;5.88;;;7.80;91.90;;;;;;2058486;28;20043;-89
2021/11/06 04:04:36;;;;;;;13.98;6.35;;;7.80;91.90;;;;;;2074137;28;20045;-89
2021/11/06 04:05:37;;;;;;;12.15;5.63;;;7.80;91.80;;;;;;2082690;28;20041;-90
2021/11/06 04:06:38;;;;;;;12.73;6.40;;;7.80;91.80;;;;;;2066172;28;20034;-89
2021/11/06 04:07:39;;;;;;;11.95;6.30;;;7.80;91.80;;;;;;2075726;28;20046;-90
2021/11/06 04:08:40;;;;;;;14.15;5.97;;;7.80;91.80;;;;;;2075113;28;20041;-92
2021/11/06 04:09:40;;;;;;;11.60;5.75;;;7.70;91.80;;;;;;2079973;28;20129;-90
2021/11/06 04:10:41;;;;;;;10.85;5.93;;;7.70;91.80;;;;;;2079645;28;20029;-91
2021/11/06 04:11:42;;;;;;;12.63;6.13;;;7.70;91.80;;;;;;2081042;28;20400;-90
2021/11/06 04:12:45;;;;;;;12.00;5.60;;;7.80;91.80;;;;;;2080493;28;20041;-91
2021/11/06 04:13:45;;;;;;;10.20;5.75;;;7.80;91.80;;;;;;2075292;28;20038;-90
2021/11/06 04:14:46;;;;;;;11.35;5.80;;;7.80;91.80;;;;;;2073128;28;20073;-90
2021/11/06 04:15:47;;;;;;;12.93;6.10;;;7.80;91.80;;;;;;2074868;28;20575;-90
2021/11/06 04:16:47;;;;;;;10.25;5.72;;;7.80;91.80;;;;;;2066744;28;20492;-90
2021/11/06 04:17:48;;;;;;;10.43;5.80;;;7.80;91.80;;;;;;2075595;28;20045;-90
2021/11/06 04:18:49;;;;;;;10.32;5.47;;;7.70;91.80;;;;;;2076182;28;20141;-90
2021/11/06 04:19:49;;;;;;;9.38;5.40;;;7.80;91.80;;;;;;2082024;28;20033;-91
2021/11/06 04:20:51;;;;;;;11.00;5.50;;;7.80;91.80;;;;;;2082869;28;20041;-91
2021/11/06 04:21:51;;;;;;;10.15;5.28;;;7.70;91.80;;;;;;2075681;28;20129;-91
2021/11/06 04:22:52;;;;;;;11.68;5.90;;;7.80;91.80;;;;;;2083134;28;20049;-91
2021/11/06 04:23:53;;;;;;;11.20;5.75;;;7.80;91.80;;;;;;2075069;28;20038;-91
2021/11/06 04:24:53;;;;;;;12.65;5.78;;;7.80;91.80;;;;;;2086344;28;20053;-91
2021/11/06 04:25:54;;;;;;;11.35;5.82;;;7.80;91.80;;;;;;2075042;28;20041;-91
2021/11/06 04:26:56;;;;;;;10.27;5.80;;;7.80;91.70;;;;;;2074849;28;20022;-91
2021/11/06 04:27:57;;;;;;;12.70;5.65;;;7.80;91.70;;;;;;2083047;28;20045;-91
2021/11/06 04:28:57;;;;;;;12.80;6.28;;;7.80;91.70;;;;;;2068825;28;20488;-90
2021/11/06 04:29:58;;;;;;;10.68;6.05;;;7.70;91.70;;;;;;2071735;28;20101;-90
2021/11/06 04:30:59;;;;;;;11.60;6.03;;;7.80;91.70;;;;;;2077677;28;20545;-91
2021/11/06 04:31:59;;;;;;;11.63;5.82;;;7.70;91.70;;;;;;2079389;28;20060;-90
2021/11/06 04:33:00;;;;;;;12.85;6.22;;;7.70;91.70;;;;;;2076292;28;20042;-92
2021/11/06 04:34:01;;;;;;;10.73;5.60;;;7.70;91.70;;;;;;2076887;28;20061;-90
2021/11/06 04:35:02;;;;;;;9.77;5.60;;;7.70;91.70;;;;;;2078779;28;20121;-90
2021/11/06 04:36:03;;;;;;;9.85;5.95;;;7.70;91.70;;;;;;2090734;28;20029;-85
2021/11/06 04:37:05;;;;;;;13.68;6.38;;;7.70;91.70;;;;;;2084151;28;20033;-90
2021/11/06 04:38:06;;;;;;;10.55;5.95;;;7.70;91.70;;;;;;2076562;28;20408;-90
2021/11/06 04:39:07;;;;;;;9.98;5.60;;;7.70;91.70;;;;;;2076636;28;20034;-89
2021/11/06 04:40:10;;;;;;;12.73;6.07;;;7.70;91.70;;;;;;2079329;28;20029;-89
2021/11/06 04:41:11;;;;;;;11.25;5.90;;;7.70;91.70;;;;;;2078836;28;20057;-89
2021/11/06 04:42:12;;;;;;;13.27;5.85;;;7.70;91.70;;;;;;2074614;28;20084;-90
2021/11/06 04:43:12;;;;;;;9.80;5.78;;;7.70;91.70;;;;;;2074290;28;20042;-89
2021/11/06 04:44:13;;;;;;;11.65;6.00;;;7.70;91.70;;;;;;2066757;28;20038;-89
2021/11/06 04:45:14;;;;;;;12.95;5.97;;;7.70;91.70;;;;;;2066562;28;20566;-90
2021/11/06 04:46:15;;;;;;;12.52;6.20;;;7.70;91.70;;;;;;2066619;28;20134;-90
2021/11/06 04:47:15;;;;;;;11.77;6.10;;;7.70;91.70;;;;;;2066686;28;20049;-90
2021/11/06 04:48:16;;;;;;;12.63;6.00;;;7.70;91.70;;;;;;2066648;28;20058;-91
2021/11/06 04:49:17;;;;;;;10.27;5.50;;;7.70;91.70;;;;;;2076463;28;20085;-90
2021/11/06 04:50:18;;;;;;;11.20;5.65;;;7.70;91.70;;;;;;2081259;28;20037;-90
2021/11/06 04:51:19;;;;;;;12.27;5.88;;;7.70;91.70;;;;;;2080366;28;20049;-90
2021/11/06 04:52:20;;;;;;;11.57;6.15;;;7.70;91.70;;;;;;2081298;28;20044;-89
2021/11/06 04:53:22;;;;;;;11.52;5.70;;;7.70;91.70;;;;;;2077318;28;20069;-90
2021/11/06 04:54:23;;;;;;;14.80;6.05;;;7.70;91.70;;;;;;2075042;28;20037;-90
2021/11/06 04:55:24;;;;;;;11.70;6.40;;;7.70;91.60;;;;;;2088084;28;20079;-90
2021/11/06 04:56:24;;;;;;;12.63;6.55;;;7.70;91.60;;;;;;2079239;28;20052;-90
2021/11/06 04:57:25;;;;;;;13.13;6.60;;;7.70;91.60;;;;;;2083014;28;20052;-91
2021/11/06 04:58:26;;;;;;;12.07;5.97;;;7.70;91.60;;;;;;2075084;28;20443;-90
2021/11/06 04:59:26;;;;;;;14.32;6.10;;;7.70;91.60;;;;;;2074702;28;20513;-91
2021/11/06 05:00:27;;;;;;;13.35;6.47;;;7.70;91.60;;;;;;2078150;28;20553;-90
2021/11/06 05:01:28;;;;;;;12.77;6.22;;;7.70;91.60;;;;;;2080787;28;20376;-90
2021/11/06 05:02:29;;;;;;;12.95;6.35;;;7.70;91.60;;;;;;2074478;28;20105;-90
2021/11/06 05:03:29;;;;;;;11.95;6.05;;;7.70;91.60;;;;;;2064660;28;20057;-90
2021/11/06 05:04:30;;;;;;;12.80;6.50;;;7.70;91.90;;;;;;2064157;28;20037;-89
2021/11/06 05:05:31;;;;;;;11.93;6.80;;;7.70;91.60;;;;;;2073252;28;20042;-90
2021/11/06 05:06:32;;;;;;;13.32;6.70;;;7.70;91.60;;;;;;2063294;28;20128;-90
2021/11/06 05:07:33;;;;;;;12.23;6.03;;;7.70;91.60;;;;;;2058171;28;20517;-90
2021/11/06 05:08:33;;;;;;;13.30;6.28;;;7.70;91.60;;;;;;2070307;28;20054;-90
2021/11/06 05:09:34;;;;;;;11.43;6.15;;;7.70;91.60;;;;;;2062701;28;20082;-90
2021/11/06 05:10:35;;;;;;;11.38;6.22;;;7.70;91.60;;;;;;2069237;28;20059;-89
2021/11/06 05:11:35;;;;;;;12.80;6.47;;;7.70;91.60;;;;;;2079271;28;20048;-89
2021/11/06 05:12:36;;;;;;;11.18;6.22;;;7.70;91.60;;;;;;2074580;28;20042;-90
2021/11/06 05:13:37;;;;;;;12.23;6.22;;;7.70;91.60;;;;;;2085780;28;20041;-90
2021/11/06 05:14:38;;;;;;;11.50;6.10;;;7.70;91.60;;;;;;2080785;28;20042;-91
2021/11/06 05:15:39;;;;;;;12.65;6.20;;;7.70;91.60;;;;;;2079430;28;20064;-90
2021/11/06 05:16:40;;;;;;;13.07;5.95;;;7.70;91.60;;;;;;2081089;28;20038;-90
2021/11/06 05:17:41;;;;;;;12.25;6.30;;;7.70;91.60;;;;;;2079032;28;20041;-90
2021/11/06 05:18:43;;;;;;;13.13;6.07;;;7.70;91.60;;;;;;2077446;28;20049;-90
2021/11/06 05:19:44;;;;;;;9.93;5.85;;;7.70;91.60;;;;;;2057281;28;20035;-90
2021/11/06 05:20:45;;;;;;;9.93;5.95;;;7.70;91.60;;;;;;2070789;28;20050;-90